sensor_id;sensor_type;location;lat;lon;timestamp;P1;durP1;ratioP1;P2;durP2;ratioP2
12445;SDS011;6287;50.984;7.022;2024-03-07T00:02:23;29.93;;;15.13;;
12445;SDS011;6287;50.984;7.022;2024-03-07T00:04:53;28.13;;;14.77;;
12445;SDS011;6287;50.984;7.022;2024-03-07T00:07:18;28.63;;;14.40;;
12445;SDS011;6287;50.984;7.022;2024-03-07T00:09:46;27.33;;;14.73;;
12445;SDS011;6287;50.984;7.022;2024-03-07T00:12:18;28.30;;;14.27;;
12445;SDS011;6287;50.984;7.022;2024-03-07T00:14:47;29.00;;;14.77;;
12445;SDS011;6287;50.984;7.022;2024-03-07T00:17:13;29.57;;;15.40;;
12445;SDS011;6287;50.984;7.022;2024-03-07T00:19:39;31.17;;;16.33;;
12445;SDS011;6287;50.984;7.022;2024-03-07T00:22:07;32.43;;;15.67;;
12445;SDS011;6287;50.984;7.022;2024-03-07T00:24:35;30.33;;;15.27;;
12445;SDS011;6287;50.984;7.022;2024-03-07T00:27:05;30.43;;;16.43;;
12445;SDS011;6287;50.984;7.022;2024-03-07T00:29:32;31.07;;;15.93;;
12445;SDS011;6287;50.984;7.022;2024-03-07T00:32:00;27.10;;;15.30;;
12445;SDS011;6287;50.984;7.022;2024-03-07T00:34:26;28.87;;;14.93;;
12445;SDS011;6287;50.984;7.022;2024-03-07T00:37:02;26.90;;;13.87;;
12445;SDS011;6287;50.984;7.022;2024-03-07T00:39:29;23.77;;;12.63;;
12445;SDS011;6287;50.984;7.022;2024-03-07T00:41:59;25.03;;;15.37;;
12445;SDS011;6287;50.984;7.022;2024-03-07T00:44:27;28.00;;;14.27;;
12445;SDS011;6287;50.984;7.022;2024-03-07T00:46:54;25.80;;;13.73;;
12445;SDS011;6287;50.984;7.022;2024-03-07T00:49:23;23.80;;;12.87;;
12445;SDS011;6287;50.984;7.022;2024-03-07T00:51:49;24.37;;;13.33;;
12445;SDS011;6287;50.984;7.022;2024-03-07T00:54:15;26.10;;;13.27;;
12445;SDS011;6287;50.984;7.022;2024-03-07T00:56:42;29.23;;;14.37;;
12445;SDS011;6287;50.984;7.022;2024-03-07T00:59:08;25.07;;;13.23;;
12445;SDS011;6287;50.984;7.022;2024-03-07T01:01:34;27.40;;;13.63;;
12445;SDS011;6287;50.984;7.022;2024-03-07T01:04:01;28.10;;;13.70;;
12445;SDS011;6287;50.984;7.022;2024-03-07T01:06:30;25.47;;;12.87;;
12445;SDS011;6287;50.984;7.022;2024-03-07T01:08:55;25.77;;;13.20;;
12445;SDS011;6287;50.984;7.022;2024-03-07T01:11:23;27.77;;;14.37;;
12445;SDS011;6287;50.984;7.022;2024-03-07T01:13:54;24.70;;;13.70;;
12445;SDS011;6287;50.984;7.022;2024-03-07T01:16:20;28.40;;;13.90;;
12445;SDS011;6287;50.984;7.022;2024-03-07T01:18:49;26.37;;;13.60;;
12445;SDS011;6287;50.984;7.022;2024-03-07T01:21:14;24.07;;;13.60;;
12445;SDS011;6287;50.984;7.022;2024-03-07T01:23:40;27.57;;;13.97;;
12445;SDS011;6287;50.984;7.022;2024-03-07T01:26:08;26.27;;;12.17;;
12445;SDS011;6287;50.984;7.022;2024-03-07T01:28:34;32.43;;;15.00;;
12445;SDS011;6287;50.984;7.022;2024-03-07T01:31:00;32.17;;;13.70;;
12445;SDS011;6287;50.984;7.022;2024-03-07T01:33:25;27.23;;;14.80;;
12445;SDS011;6287;50.984;7.022;2024-03-07T01:35:52;28.87;;;13.60;;
12445;SDS011;6287;50.984;7.022;2024-03-07T01:38:17;27.47;;;13.87;;
12445;SDS011;6287;50.984;7.022;2024-03-07T01:40:45;26.63;;;12.93;;
12445;SDS011;6287;50.984;7.022;2024-03-07T01:43:11;26.93;;;13.90;;
12445;SDS011;6287;50.984;7.022;2024-03-07T01:45:37;28.20;;;13.00;;
12445;SDS011;6287;50.984;7.022;2024-03-07T01:48:04;28.13;;;13.67;;
12445;SDS011;6287;50.984;7.022;2024-03-07T01:50:34;30.93;;;14.17;;
12445;SDS011;6287;50.984;7.022;2024-03-07T01:53:03;30.43;;;13.23;;
12445;SDS011;6287;50.984;7.022;2024-03-07T01:55:31;26.90;;;13.90;;
12445;SDS011;6287;50.984;7.022;2024-03-07T01:57:59;27.63;;;14.70;;
12445;SDS011;6287;50.984;7.022;2024-03-07T02:00:29;25.17;;;13.67;;
12445;SDS011;6287;50.984;7.022;2024-03-07T02:02:56;28.50;;;14.20;;
12445;SDS011;6287;50.984;7.022;2024-03-07T02:05:21;27.27;;;14.43;;
12445;SDS011;6287;50.984;7.022;2024-03-07T02:07:47;30.53;;;14.83;;
12445;SDS011;6287;50.984;7.022;2024-03-07T02:10:14;23.03;;;12.27;;
12445;SDS011;6287;50.984;7.022;2024-03-07T02:12:41;27.50;;;13.57;;
12445;SDS011;6287;50.984;7.022;2024-03-07T02:15:07;28.57;;;13.53;;
12445;SDS011;6287;50.984;7.022;2024-03-07T02:17:33;27.33;;;11.97;;
12445;SDS011;6287;50.984;7.022;2024-03-07T02:20:00;28.33;;;12.83;;
12445;SDS011;6287;50.984;7.022;2024-03-07T02:22:25;23.10;;;12.73;;
12445;SDS011;6287;50.984;7.022;2024-03-07T02:24:51;25.43;;;13.40;;
12445;SDS011;6287;50.984;7.022;2024-03-07T02:27:18;29.40;;;14.10;;
12445;SDS011;6287;50.984;7.022;2024-03-07T02:29:43;25.00;;;12.97;;
12445;SDS011;6287;50.984;7.022;2024-03-07T02:32:12;23.63;;;11.67;;
12445;SDS011;6287;50.984;7.022;2024-03-07T02:34:38;24.43;;;12.13;;
12445;SDS011;6287;50.984;7.022;2024-03-07T02:37:03;26.87;;;12.63;;
12445;SDS011;6287;50.984;7.022;2024-03-07T02:39:31;28.77;;;13.30;;
12445;SDS011;6287;50.984;7.022;2024-03-07T02:41:57;27.57;;;13.43;;
12445;SDS011;6287;50.984;7.022;2024-03-07T02:44:27;25.77;;;12.83;;
12445;SDS011;6287;50.984;7.022;2024-03-07T02:46:56;27.20;;;13.50;;
12445;SDS011;6287;50.984;7.022;2024-03-07T02:49:28;26.57;;;13.13;;
12445;SDS011;6287;50.984;7.022;2024-03-07T02:51:55;23.40;;;12.17;;
12445;SDS011;6287;50.984;7.022;2024-03-07T02:54:21;24.93;;;12.67;;
12445;SDS011;6287;50.984;7.022;2024-03-07T02:56:47;23.17;;;11.77;;
12445;SDS011;6287;50.984;7.022;2024-03-07T02:59:15;25.87;;;11.47;;
12445;SDS011;6287;50.984;7.022;2024-03-07T03:01:43;22.97;;;12.17;;
12445;SDS011;6287;50.984;7.022;2024-03-07T03:04:12;25.07;;;12.60;;
12445;SDS011;6287;50.984;7.022;2024-03-07T03:06:39;28.43;;;13.43;;
12445;SDS011;6287;50.984;7.022;2024-03-07T03:09:04;26.17;;;13.97;;
12445;SDS011;6287;50.984;7.022;2024-03-07T03:11:30;28.17;;;13.20;;
12445;SDS011;6287;50.984;7.022;2024-03-07T03:13:56;22.97;;;12.30;;
12445;SDS011;6287;50.984;7.022;2024-03-07T03:16:23;25.37;;;13.00;;
12445;SDS011;6287;50.984;7.022;2024-03-07T03:18:49;24.43;;;12.57;;
12445;SDS011;6287;50.984;7.022;2024-03-07T03:21:15;24.23;;;12.00;;
12445;SDS011;6287;50.984;7.022;2024-03-07T03:23:41;26.23;;;12.97;;
12445;SDS011;6287;50.984;7.022;2024-03-07T03:26:08;24.20;;;12.30;;
12445;SDS011;6287;50.984;7.022;2024-03-07T03:28:34;23.20;;;13.07;;
12445;SDS011;6287;50.984;7.022;2024-03-07T03:31:00;23.87;;;11.07;;
12445;SDS011;6287;50.984;7.022;2024-03-07T03:33:29;24.73;;;12.17;;
12445;SDS011;6287;50.984;7.022;2024-03-07T03:35:55;25.80;;;13.47;;
12445;SDS011;6287;50.984;7.022;2024-03-07T03:38:23;26.67;;;12.50;;
12445;SDS011;6287;50.984;7.022;2024-03-07T03:40:52;27.13;;;12.87;;
12445;SDS011;6287;50.984;7.022;2024-03-07T03:43:18;23.40;;;12.13;;
12445;SDS011;6287;50.984;7.022;2024-03-07T03:45:44;23.37;;;11.57;;
12445;SDS011;6287;50.984;7.022;2024-03-07T03:48:10;27.57;;;12.90;;
12445;SDS011;6287;50.984;7.022;2024-03-07T03:50:36;24.63;;;13.20;;
12445;SDS011;6287;50.984;7.022;2024-03-07T03:53:01;23.80;;;12.50;;
12445;SDS011;6287;50.984;7.022;2024-03-07T03:55:29;23.90;;;12.40;;
12445;SDS011;6287;50.984;7.022;2024-03-07T03:57:54;27.10;;;13.63;;
12445;SDS011;6287;50.984;7.022;2024-03-07T04:00:22;21.50;;;12.20;;
12445;SDS011;6287;50.984;7.022;2024-03-07T04:02:50;23.40;;;12.47;;
12445;SDS011;6287;50.984;7.022;2024-03-07T04:05:19;27.27;;;13.10;;
12445;SDS011;6287;50.984;7.022;2024-03-07T04:07:48;27.30;;;12.83;;
12445;SDS011;6287;50.984;7.022;2024-03-07T04:10:16;24.40;;;12.37;;
12445;SDS011;6287;50.984;7.022;2024-03-07T04:12:42;24.63;;;12.73;;
12445;SDS011;6287;50.984;7.022;2024-03-07T04:15:11;25.10;;;11.83;;
12445;SDS011;6287;50.984;7.022;2024-03-07T04:17:41;20.67;;;11.73;;
12445;SDS011;6287;50.984;7.022;2024-03-07T04:20:07;24.27;;;11.70;;
12445;SDS011;6287;50.984;7.022;2024-03-07T04:22:35;22.33;;;12.13;;
12445;SDS011;6287;50.984;7.022;2024-03-07T04:25:07;21.43;;;12.00;;
12445;SDS011;6287;50.984;7.022;2024-03-07T04:27:34;23.80;;;11.87;;
12445;SDS011;6287;50.984;7.022;2024-03-07T04:30:02;23.53;;;11.80;;
12445;SDS011;6287;50.984;7.022;2024-03-07T04:32:29;24.27;;;11.20;;
12445;SDS011;6287;50.984;7.022;2024-03-07T04:34:55;24.37;;;11.27;;
12445;SDS011;6287;50.984;7.022;2024-03-07T04:37:25;23.20;;;11.40;;
12445;SDS011;6287;50.984;7.022;2024-03-07T04:39:52;23.03;;;11.80;;
12445;SDS011;6287;50.984;7.022;2024-03-07T04:42:18;21.10;;;11.07;;
12445;SDS011;6287;50.984;7.022;2024-03-07T04:44:46;24.77;;;12.17;;
12445;SDS011;6287;50.984;7.022;2024-03-07T04:47:11;20.20;;;10.67;;
12445;SDS011;6287;50.984;7.022;2024-03-07T04:49:37;23.97;;;11.63;;
12445;SDS011;6287;50.984;7.022;2024-03-07T04:52:03;20.40;;;11.27;;
12445;SDS011;6287;50.984;7.022;2024-03-07T04:54:30;23.40;;;11.67;;
12445;SDS011;6287;50.984;7.022;2024-03-07T04:57:02;24.07;;;11.10;;
12445;SDS011;6287;50.984;7.022;2024-03-07T04:59:28;24.60;;;11.03;;
12445;SDS011;6287;50.984;7.022;2024-03-07T05:01:54;21.40;;;10.53;;
12445;SDS011;6287;50.984;7.022;2024-03-07T05:04:22;22.27;;;10.87;;
12445;SDS011;6287;50.984;7.022;2024-03-07T05:06:54;21.30;;;11.60;;
12445;SDS011;6287;50.984;7.022;2024-03-07T05:09:22;20.07;;;11.20;;
12445;SDS011;6287;50.984;7.022;2024-03-07T05:11:48;22.63;;;11.43;;
12445;SDS011;6287;50.984;7.022;2024-03-07T05:14:16;23.60;;;11.77;;
12445;SDS011;6287;50.984;7.022;2024-03-07T05:16:44;22.37;;;10.87;;
12445;SDS011;6287;50.984;7.022;2024-03-07T05:19:10;23.77;;;11.87;;
12445;SDS011;6287;50.984;7.022;2024-03-07T05:21:39;21.53;;;11.07;;
12445;SDS011;6287;50.984;7.022;2024-03-07T05:24:07;22.83;;;11.17;;
12445;SDS011;6287;50.984;7.022;2024-03-07T05:26:36;22.80;;;11.20;;
12445;SDS011;6287;50.984;7.022;2024-03-07T05:29:08;24.40;;;11.53;;
12445;SDS011;6287;50.984;7.022;2024-03-07T05:31:40;24.30;;;11.30;;
12445;SDS011;6287;50.984;7.022;2024-03-07T05:34:15;21.00;;;11.17;;
12445;SDS011;6287;50.984;7.022;2024-03-07T05:36:44;22.70;;;11.53;;
12445;SDS011;6287;50.984;7.022;2024-03-07T05:39:13;21.97;;;10.63;;
12445;SDS011;6287;50.984;7.022;2024-03-07T05:41:40;21.23;;;10.83;;
12445;SDS011;6287;50.984;7.022;2024-03-07T05:44:07;24.47;;;12.50;;
12445;SDS011;6287;50.984;7.022;2024-03-07T05:46:39;19.37;;;10.17;;
12445;SDS011;6287;50.984;7.022;2024-03-07T05:49:14;26.23;;;12.40;;
12445;SDS011;6287;50.984;7.022;2024-03-07T05:51:41;28.10;;;11.73;;
12445;SDS011;6287;50.984;7.022;2024-03-07T05:54:09;25.57;;;12.40;;
12445;SDS011;6287;50.984;7.022;2024-03-07T05:56:43;26.63;;;12.40;;
12445;SDS011;6287;50.984;7.022;2024-03-07T05:59:11;22.77;;;11.40;;
12445;SDS011;6287;50.984;7.022;2024-03-07T06:01:36;20.93;;;11.00;;
12445;SDS011;6287;50.984;7.022;2024-03-07T06:04:03;27.63;;;12.07;;
12445;SDS011;6287;50.984;7.022;2024-03-07T06:06:33;22.83;;;11.70;;
12445;SDS011;6287;50.984;7.022;2024-03-07T06:09:01;20.33;;;11.57;;
12445;SDS011;6287;50.984;7.022;2024-03-07T06:11:37;20.63;;;11.70;;
12445;SDS011;6287;50.984;7.022;2024-03-07T06:14:10;21.93;;;10.77;;
12445;SDS011;6287;50.984;7.022;2024-03-07T06:16:38;21.47;;;11.10;;
12445;SDS011;6287;50.984;7.022;2024-03-07T06:19:05;23.37;;;11.63;;
12445;SDS011;6287;50.984;7.022;2024-03-07T06:21:32;23.57;;;10.70;;
12445;SDS011;6287;50.984;7.022;2024-03-07T06:23:59;22.83;;;11.23;;
12445;SDS011;6287;50.984;7.022;2024-03-07T06:26:32;26.70;;;12.07;;
12445;SDS011;6287;50.984;7.022;2024-03-07T06:29:06;19.83;;;10.83;;
12445;SDS011;6287;50.984;7.022;2024-03-07T06:31:38;23.57;;;11.40;;
12445;SDS011;6287;50.984;7.022;2024-03-07T06:34:05;25.17;;;12.20;;
12445;SDS011;6287;50.984;7.022;2024-03-07T06:36:33;21.60;;;11.37;;
12445;SDS011;6287;50.984;7.022;2024-03-07T06:39:02;26.90;;;12.67;;
12445;SDS011;6287;50.984;7.022;2024-03-07T06:41:34;23.50;;;11.50;;
12445;SDS011;6287;50.984;7.022;2024-03-07T06:44:00;24.23;;;12.03;;
12445;SDS011;6287;50.984;7.022;2024-03-07T06:46:26;23.70;;;12.27;;
12445;SDS011;6287;50.984;7.022;2024-03-07T06:48:51;25.60;;;13.07;;
12445;SDS011;6287;50.984;7.022;2024-03-07T06:51:17;24.33;;;13.13;;
12445;SDS011;6287;50.984;7.022;2024-03-07T06:53:49;23.73;;;12.10;;
12445;SDS011;6287;50.984;7.022;2024-03-07T06:56:17;23.23;;;12.23;;
12445;SDS011;6287;50.984;7.022;2024-03-07T06:58:45;24.37;;;13.13;;
12445;SDS011;6287;50.984;7.022;2024-03-07T07:01:11;22.90;;;12.37;;
12445;SDS011;6287;50.984;7.022;2024-03-07T07:03:42;21.70;;;12.03;;
12445;SDS011;6287;50.984;7.022;2024-03-07T07:06:11;24.97;;;13.80;;
12445;SDS011;6287;50.984;7.022;2024-03-07T07:08:39;26.83;;;13.40;;
12445;SDS011;6287;50.984;7.022;2024-03-07T07:11:05;28.87;;;14.93;;
12445;SDS011;6287;50.984;7.022;2024-03-07T07:13:37;27.80;;;14.17;;
12445;SDS011;6287;50.984;7.022;2024-03-07T07:16:03;24.90;;;13.80;;
12445;SDS011;6287;50.984;7.022;2024-03-07T07:18:31;32.83;;;16.20;;
12445;SDS011;6287;50.984;7.022;2024-03-07T07:21:03;28.53;;;14.83;;
12445;SDS011;6287;50.984;7.022;2024-03-07T07:23:35;24.40;;;13.83;;
12445;SDS011;6287;50.984;7.022;2024-03-07T07:26:03;26.57;;;13.67;;
12445;SDS011;6287;50.984;7.022;2024-03-07T07:28:30;24.57;;;13.57;;
12445;SDS011;6287;50.984;7.022;2024-03-07T07:31:03;24.17;;;13.77;;
12445;SDS011;6287;50.984;7.022;2024-03-07T07:33:34;24.83;;;13.87;;
12445;SDS011;6287;50.984;7.022;2024-03-07T07:35:59;25.10;;;13.73;;
12445;SDS011;6287;50.984;7.022;2024-03-07T07:38:25;25.47;;;13.43;;
12445;SDS011;6287;50.984;7.022;2024-03-07T07:40:56;23.83;;;13.37;;
12445;SDS011;6287;50.984;7.022;2024-03-07T07:43:22;24.00;;;12.73;;
12445;SDS011;6287;50.984;7.022;2024-03-07T07:45:48;22.23;;;12.43;;
12445;SDS011;6287;50.984;7.022;2024-03-07T07:48:15;19.50;;;12.37;;
12445;SDS011;6287;50.984;7.022;2024-03-07T07:50:41;24.57;;;13.83;;
12445;SDS011;6287;50.984;7.022;2024-03-07T07:53:09;19.47;;;11.93;;
12445;SDS011;6287;50.984;7.022;2024-03-07T07:55:37;22.20;;;12.27;;
12445;SDS011;6287;50.984;7.022;2024-03-07T07:58:05;23.53;;;13.60;;
12445;SDS011;6287;50.984;7.022;2024-03-07T08:00:31;19.10;;;11.60;;
12445;SDS011;6287;50.984;7.022;2024-03-07T08:03:04;19.97;;;11.70;;
12445;SDS011;6287;50.984;7.022;2024-03-07T08:05:34;21.67;;;11.23;;
12445;SDS011;6287;50.984;7.022;2024-03-07T08:08:02;19.37;;;11.73;;
12445;SDS011;6287;50.984;7.022;2024-03-07T08:10:30;18.73;;;12.00;;
12445;SDS011;6287;50.984;7.022;2024-03-07T08:12:56;20.60;;;12.27;;
12445;SDS011;6287;50.984;7.022;2024-03-07T08:15:22;19.63;;;11.20;;
12445;SDS011;6287;50.984;7.022;2024-03-07T08:17:52;17.47;;;11.33;;
12445;SDS011;6287;50.984;7.022;2024-03-07T08:20:20;17.73;;;11.27;;
12445;SDS011;6287;50.984;7.022;2024-03-07T08:22:50;18.43;;;11.67;;
12445;SDS011;6287;50.984;7.022;2024-03-07T08:25:20;17.30;;;10.77;;
12445;SDS011;6287;50.984;7.022;2024-03-07T08:27:48;19.23;;;10.97;;
12445;SDS011;6287;50.984;7.022;2024-03-07T08:30:15;19.60;;;10.53;;
12445;SDS011;6287;50.984;7.022;2024-03-07T08:35:11;18.57;;;10.83;;
12445;SDS011;6287;50.984;7.022;2024-03-07T08:40:03;15.07;;;9.47;;
12445;SDS011;6287;50.984;7.022;2024-03-07T08:42:35;18.13;;;10.40;;
12445;SDS011;6287;50.984;7.022;2024-03-07T08:45:01;17.00;;;10.30;;
12445;SDS011;6287;50.984;7.022;2024-03-07T08:47:29;16.63;;;9.90;;
12445;SDS011;6287;50.984;7.022;2024-03-07T08:49:58;15.87;;;9.67;;
12445;SDS011;6287;50.984;7.022;2024-03-07T08:52:24;15.53;;;9.43;;
12445;SDS011;6287;50.984;7.022;2024-03-07T08:54:53;14.40;;;8.80;;
12445;SDS011;6287;50.984;7.022;2024-03-07T08:57:19;14.07;;;9.50;;
12445;SDS011;6287;50.984;7.022;2024-03-07T08:59:47;13.47;;;9.23;;
12445;SDS011;6287;50.984;7.022;2024-03-07T09:02:15;17.10;;;9.53;;
12445;SDS011;6287;50.984;7.022;2024-03-07T09:04:41;14.87;;;9.27;;
12445;SDS011;6287;50.984;7.022;2024-03-07T09:07:07;14.97;;;9.27;;
12445;SDS011;6287;50.984;7.022;2024-03-07T09:09:35;14.57;;;8.63;;
12445;SDS011;6287;50.984;7.022;2024-03-07T09:12:03;16.17;;;9.83;;
12445;SDS011;6287;50.984;7.022;2024-03-07T09:14:30;14.03;;;8.97;;
12445;SDS011;6287;50.984;7.022;2024-03-07T09:16:59;13.47;;;9.30;;
12445;SDS011;6287;50.984;7.022;2024-03-07T09:19:24;14.60;;;9.43;;
12445;SDS011;6287;50.984;7.022;2024-03-07T09:21:50;14.73;;;9.37;;
12445;SDS011;6287;50.984;7.022;2024-03-07T09:24:19;17.93;;;9.33;;
12445;SDS011;6287;50.984;7.022;2024-03-07T09:26:51;15.00;;;9.83;;
12445;SDS011;6287;50.984;7.022;2024-03-07T09:29:18;14.77;;;9.23;;
12445;SDS011;6287;50.984;7.022;2024-03-07T09:31:44;15.43;;;9.43;;
12445;SDS011;6287;50.984;7.022;2024-03-07T09:34:11;15.40;;;9.30;;
12445;SDS011;6287;50.984;7.022;2024-03-07T09:36:39;13.93;;;8.80;;
12445;SDS011;6287;50.984;7.022;2024-03-07T09:39:08;16.30;;;9.27;;
12445;SDS011;6287;50.984;7.022;2024-03-07T09:41:42;14.20;;;9.13;;
12445;SDS011;6287;50.984;7.022;2024-03-07T09:44:08;18.87;;;10.60;;
12445;SDS011;6287;50.984;7.022;2024-03-07T09:46:37;17.87;;;9.00;;
12445;SDS011;6287;50.984;7.022;2024-03-07T09:49:06;17.03;;;10.03;;
12445;SDS011;6287;50.984;7.022;2024-03-07T09:51:35;15.17;;;9.37;;
12445;SDS011;6287;50.984;7.022;2024-03-07T09:54:03;14.20;;;9.50;;
12445;SDS011;6287;50.984;7.022;2024-03-07T09:56:31;15.50;;;9.93;;
12445;SDS011;6287;50.984;7.022;2024-03-07T09:58:57;17.47;;;9.50;;
12445;SDS011;6287;50.984;7.022;2024-03-07T10:01:27;16.83;;;10.70;;
12445;SDS011;6287;50.984;7.022;2024-03-07T10:03:59;17.27;;;9.93;;
12445;SDS011;6287;50.984;7.022;2024-03-07T10:06:36;16.37;;;9.57;;
12445;SDS011;6287;50.984;7.022;2024-03-07T10:09:10;15.10;;;9.70;;
12445;SDS011;6287;50.984;7.022;2024-03-07T10:11:42;19.50;;;10.70;;
12445;SDS011;6287;50.984;7.022;2024-03-07T10:14:09;18.40;;;10.30;;
12445;SDS011;6287;50.984;7.022;2024-03-07T10:16:36;16.27;;;9.93;;
12445;SDS011;6287;50.984;7.022;2024-03-07T10:19:09;15.50;;;9.63;;
12445;SDS011;6287;50.984;7.022;2024-03-07T10:21:40;17.10;;;10.37;;
12445;SDS011;6287;50.984;7.022;2024-03-07T10:24:06;17.03;;;10.47;;
12445;SDS011;6287;50.984;7.022;2024-03-07T10:26:36;15.47;;;9.77;;
12445;SDS011;6287;50.984;7.022;2024-03-07T10:29:03;18.30;;;10.23;;
12445;SDS011;6287;50.984;7.022;2024-03-07T10:31:30;14.23;;;9.03;;
12445;SDS011;6287;50.984;7.022;2024-03-07T10:34:04;17.40;;;10.23;;
12445;SDS011;6287;50.984;7.022;2024-03-07T10:36:32;14.93;;;10.20;;
12445;SDS011;6287;50.984;7.022;2024-03-07T10:38:59;14.70;;;9.53;;
12445;SDS011;6287;50.984;7.022;2024-03-07T10:41:47;15.60;;;9.60;;
12445;SDS011;6287;50.984;7.022;2024-03-07T10:44:20;15.57;;;9.93;;
12445;SDS011;6287;50.984;7.022;2024-03-07T10:46:54;15.10;;;9.57;;
12445;SDS011;6287;50.984;7.022;2024-03-07T10:49:22;16.17;;;10.17;;
12445;SDS011;6287;50.984;7.022;2024-03-07T10:52:06;15.43;;;9.57;;
12445;SDS011;6287;50.984;7.022;2024-03-07T10:59:56;13.40;;;8.70;;
12445;SDS011;6287;50.984;7.022;2024-03-07T11:02:37;14.90;;;9.30;;
12445;SDS011;6287;50.984;7.022;2024-03-07T11:05:11;15.00;;;8.23;;
12445;SDS011;6287;50.984;7.022;2024-03-07T11:07:43;13.80;;;9.53;;
12445;SDS011;6287;50.984;7.022;2024-03-07T11:10:09;12.90;;;8.33;;
12445;SDS011;6287;50.984;7.022;2024-03-07T11:12:36;13.07;;;8.43;;
12445;SDS011;6287;50.984;7.022;2024-03-07T11:15:06;13.60;;;8.73;;
12445;SDS011;6287;50.984;7.022;2024-03-07T11:17:39;15.27;;;9.50;;
12445;SDS011;6287;50.984;7.022;2024-03-07T11:20:20;13.97;;;8.63;;
12445;SDS011;6287;50.984;7.022;2024-03-07T11:22:58;17.93;;;9.37;;
12445;SDS011;6287;50.984;7.022;2024-03-07T11:25:44;15.77;;;9.30;;
12445;SDS011;6287;50.984;7.022;2024-03-07T11:28:09;14.87;;;9.93;;
12445;SDS011;6287;50.984;7.022;2024-03-07T11:30:40;16.17;;;10.10;;
12445;SDS011;6287;50.984;7.022;2024-03-07T11:33:06;15.73;;;9.97;;
12445;SDS011;6287;50.984;7.022;2024-03-07T11:35:32;13.97;;;9.37;;
12445;SDS011;6287;50.984;7.022;2024-03-07T11:38:06;17.03;;;10.43;;
12445;SDS011;6287;50.984;7.022;2024-03-07T11:43:00;14.67;;;9.63;;
12445;SDS011;6287;50.984;7.022;2024-03-07T11:45:29;15.90;;;9.00;;
12445;SDS011;6287;50.984;7.022;2024-03-07T11:47:58;14.67;;;8.80;;
12445;SDS011;6287;50.984;7.022;2024-03-07T11:50:29;14.00;;;8.30;;
12445;SDS011;6287;50.984;7.022;2024-03-07T11:53:00;13.03;;;7.87;;
12445;SDS011;6287;50.984;7.022;2024-03-07T11:55:30;14.40;;;9.13;;
12445;SDS011;6287;50.984;7.022;2024-03-07T11:58:21;15.73;;;9.40;;
12445;SDS011;6287;50.984;7.022;2024-03-07T12:00:49;12.20;;;7.73;;
12445;SDS011;6287;50.984;7.022;2024-03-07T12:03:19;12.50;;;7.73;;
12445;SDS011;6287;50.984;7.022;2024-03-07T12:05:50;11.40;;;7.63;;
12445;SDS011;6287;50.984;7.022;2024-03-07T12:08:19;14.43;;;8.40;;
12445;SDS011;6287;50.984;7.022;2024-03-07T12:10:49;11.27;;;7.73;;
12445;SDS011;6287;50.984;7.022;2024-03-07T12:13:18;10.13;;;7.27;;
12445;SDS011;6287;50.984;7.022;2024-03-07T12:15:47;11.30;;;7.20;;
12445;SDS011;6287;50.984;7.022;2024-03-07T12:18:16;9.30;;;6.97;;
12445;SDS011;6287;50.984;7.022;2024-03-07T12:20:46;11.53;;;7.40;;
12445;SDS011;6287;50.984;7.022;2024-03-07T12:23:22;11.27;;;7.03;;
12445;SDS011;6287;50.984;7.022;2024-03-07T12:25:58;10.13;;;7.20;;
12445;SDS011;6287;50.984;7.022;2024-03-07T12:28:27;9.03;;;6.47;;
12445;SDS011;6287;50.984;7.022;2024-03-07T12:30:58;8.67;;;5.40;;
12445;SDS011;6287;50.984;7.022;2024-03-07T12:33:27;8.20;;;5.60;;
12445;SDS011;6287;50.984;7.022;2024-03-07T12:35:54;10.30;;;6.00;;
12445;SDS011;6287;50.984;7.022;2024-03-07T12:38:31;7.90;;;5.73;;
12445;SDS011;6287;50.984;7.022;2024-03-07T12:41:04;7.47;;;5.63;;
12445;SDS011;6287;50.984;7.022;2024-03-07T12:43:32;7.20;;;5.70;;
12445;SDS011;6287;50.984;7.022;2024-03-07T12:46:00;7.57;;;5.33;;
12445;SDS011;6287;50.984;7.022;2024-03-07T12:48:26;8.43;;;6.23;;
12445;SDS011;6287;50.984;7.022;2024-03-07T12:50:56;9.80;;;5.93;;
12445;SDS011;6287;50.984;7.022;2024-03-07T12:53:22;7.40;;;5.47;;
12445;SDS011;6287;50.984;7.022;2024-03-07T12:55:54;7.17;;;5.63;;
12445;SDS011;6287;50.984;7.022;2024-03-07T12:58:22;10.67;;;6.53;;
12445;SDS011;6287;50.984;7.022;2024-03-07T13:00:54;10.00;;;6.27;;
12445;SDS011;6287;50.984;7.022;2024-03-07T13:03:25;8.00;;;5.87;;
12445;SDS011;6287;50.984;7.022;2024-03-07T13:05:58;9.20;;;5.90;;
12445;SDS011;6287;50.984;7.022;2024-03-07T13:08:26;10.17;;;6.23;;
12445;SDS011;6287;50.984;7.022;2024-03-07T13:10:55;11.07;;;6.70;;
12445;SDS011;6287;50.984;7.022;2024-03-07T13:13:21;10.00;;;6.73;;
12445;SDS011;6287;50.984;7.022;2024-03-07T13:15:49;9.20;;;6.20;;
12445;SDS011;6287;50.984;7.022;2024-03-07T13:18:20;11.37;;;6.20;;
12445;SDS011;6287;50.984;7.022;2024-03-07T13:20:50;9.57;;;6.23;;
12445;SDS011;6287;50.984;7.022;2024-03-07T13:23:18;8.40;;;5.67;;
12445;SDS011;6287;50.984;7.022;2024-03-07T13:25:46;8.63;;;5.43;;
12445;SDS011;6287;50.984;7.022;2024-03-07T13:28:14;6.20;;;5.00;;
12445;SDS011;6287;50.984;7.022;2024-03-07T13:30:49;8.37;;;5.20;;
12445;SDS011;6287;50.984;7.022;2024-03-07T13:33:15;8.63;;;6.03;;
12445;SDS011;6287;50.984;7.022;2024-03-07T13:35:40;10.00;;;5.97;;
12445;SDS011;6287;50.984;7.022;2024-03-07T13:38:06;7.87;;;5.83;;
12445;SDS011;6287;50.984;7.022;2024-03-07T13:40:33;7.87;;;5.83;;
12445;SDS011;6287;50.984;7.022;2024-03-07T13:43:04;8.07;;;5.80;;
12445;SDS011;6287;50.984;7.022;2024-03-07T13:45:30;8.27;;;5.50;;
12445;SDS011;6287;50.984;7.022;2024-03-07T13:48:01;8.98;;;7.07;;
12445;SDS011;6287;50.984;7.022;2024-03-07T13:50:30;7.43;;;6.03;;
12445;SDS011;6287;50.984;7.022;2024-03-07T13:52:57;8.17;;;5.20;;
12445;SDS011;6287;50.984;7.022;2024-03-07T14:27:15;7.27;;;5.53;;
12445;SDS011;6287;50.984;7.022;2024-03-07T14:32:41;8.47;;;5.57;;
12445;SDS011;6287;50.984;7.022;2024-03-07T14:38:25;7.27;;;5.40;;
12445;SDS011;6287;50.984;7.022;2024-03-07T14:40:32;7.27;;;5.30;;
12445;SDS011;6287;50.984;7.022;2024-03-07T14:42:58;8.50;;;5.07;;
12445;SDS011;6287;50.984;7.022;2024-03-07T14:45:31;7.70;;;4.90;;
12445;SDS011;6287;50.984;7.022;2024-03-07T14:48:07;6.83;;;5.13;;
12445;SDS011;6287;50.984;7.022;2024-03-07T14:50:37;6.23;;;4.87;;
12445;SDS011;6287;50.984;7.022;2024-03-07T14:53:05;13.47;;;5.03;;
12445;SDS011;6287;50.984;7.022;2024-03-07T14:55:37;7.33;;;4.90;;
12445;SDS011;6287;50.984;7.022;2024-03-07T14:58:04;5.47;;;4.63;;
12445;SDS011;6287;50.984;7.022;2024-03-07T15:00:34;6.10;;;4.53;;
12445;SDS011;6287;50.984;7.022;2024-03-07T15:03:11;6.27;;;4.60;;
12445;SDS011;6287;50.984;7.022;2024-03-07T15:05:40;5.40;;;4.47;;
12445;SDS011;6287;50.984;7.022;2024-03-07T15:08:06;7.87;;;5.10;;
12445;SDS011;6287;50.984;7.022;2024-03-07T15:10:35;8.03;;;4.93;;
12445;SDS011;6287;50.984;7.022;2024-03-07T15:13:10;6.13;;;4.77;;
12445;SDS011;6287;50.984;7.022;2024-03-07T15:15:37;6.93;;;4.60;;
12445;SDS011;6287;50.984;7.022;2024-03-07T15:18:11;8.43;;;5.03;;
12445;SDS011;6287;50.984;7.022;2024-03-07T15:20:37;7.83;;;4.70;;
12445;SDS011;6287;50.984;7.022;2024-03-07T15:23:06;6.73;;;4.63;;
12445;SDS011;6287;50.984;7.022;2024-03-07T15:25:36;6.93;;;5.13;;
12445;SDS011;6287;50.984;7.022;2024-03-07T15:28:03;7.47;;;5.43;;
12445;SDS011;6287;50.984;7.022;2024-03-07T15:30:29;7.60;;;5.00;;
12445;SDS011;6287;50.984;7.022;2024-03-07T15:33:00;6.80;;;4.83;;
12445;SDS011;6287;50.984;7.022;2024-03-07T15:35:26;7.30;;;5.37;;
12445;SDS011;6287;50.984;7.022;2024-03-07T15:37:55;9.10;;;5.37;;
12445;SDS011;6287;50.984;7.022;2024-03-07T15:40:20;7.80;;;5.33;;